createdAt,value
2023-04-09T00:00:29.947Z,37.93
2023-04-09T00:02:57.885Z,36.77
2023-04-09T00:05:25.920Z,33.37
2023-04-09T00:07:53.636Z,35.87
2023-04-09T00:10:22.815Z,38.83
2023-04-09T00:12:50.697Z,35.97
2023-04-09T00:15:29.831Z,38.37
2023-04-09T00:17:58.800Z,34.73
2023-04-09T00:20:26.732Z,34.83
2023-04-09T00:22:55.619Z,31.77
2023-04-09T00:25:24.810Z,35.57
2023-04-09T00:27:52.947Z,36.90
2023-04-09T00:30:20.795Z,35.17
2023-04-09T00:32:48.691Z,40.30
2023-04-09T00:35:17.758Z,33.27
2023-04-09T00:37:45.675Z,36.37
2023-04-09T00:40:13.773Z,34.77
2023-04-09T00:42:43.041Z,36.77
2023-04-09T00:45:11.485Z,38.97
2023-04-09T00:47:39.582Z,33.73
2023-04-09T00:50:08.216Z,35.13
2023-04-09T00:52:36.138Z,34.00
2023-04-09T00:55:05.925Z,34.93
2023-04-09T00:57:34.177Z,34.90
2023-04-09T01:00:04.021Z,35.83
2023-04-09T01:02:31.866Z,38.33
2023-04-09T01:05:00.244Z,40.33
2023-04-09T01:07:46.663Z,36.97
2023-04-09T01:10:29.999Z,35.23
2023-04-09T01:13:08.396Z,34.10
2023-04-09T01:15:41.415Z,35.77
2023-04-09T01:18:16.948Z,35.90
2023-04-09T01:20:50.879Z,34.30
2023-04-09T01:23:29.264Z,39.83
2023-04-09T01:26:05.502Z,39.03
2023-04-09T01:28:46.607Z,33.53
2023-04-09T01:31:18.726Z,33.63
2023-04-09T01:33:47.934Z,32.90
2023-04-09T01:36:16.891Z,37.07
2023-04-09T01:38:47.346Z,35.27
2023-04-09T01:41:18.811Z,31.43
2023-04-09T01:43:49.756Z,31.97
2023-04-09T01:46:19.298Z,34.07
2023-04-09T01:48:48.079Z,31.07
2023-04-09T01:51:16.678Z,31.60
2023-04-09T01:53:44.784Z,30.20
2023-04-09T01:56:12.586Z,30.10
2023-04-09T01:58:40.911Z,32.60
2023-04-09T02:01:13.658Z,33.20
2023-04-09T02:03:47.471Z,34.70
2023-04-09T02:06:18.756Z,31.80
2023-04-09T02:08:48.804Z,32.77
2023-04-09T02:11:17.445Z,35.13
2023-04-09T02:13:46.715Z,34.83
2023-04-09T02:16:17.419Z,34.77
2023-04-09T02:18:45.240Z,35.57
2023-04-09T02:21:13.748Z,38.07
2023-04-09T02:23:41.568Z,33.30
2023-04-09T02:26:09.363Z,35.20
2023-04-09T02:28:37.325Z,32.50
2023-04-09T02:31:05.500Z,36.10
2023-04-09T02:33:35.215Z,35.30
2023-04-09T02:36:03.019Z,31.07
2023-04-09T02:38:30.846Z,31.17
2023-04-09T02:40:58.859Z,32.03
2023-04-09T02:43:26.556Z,36.93
2023-04-09T02:45:54.243Z,36.50
2023-04-09T02:48:22.543Z,34.33
2023-04-09T02:50:51.948Z,34.90
2023-04-09T02:53:21.404Z,34.53
2023-04-09T02:55:49.601Z,34.33
2023-04-09T02:58:17.321Z,34.03
2023-04-09T03:00:45.298Z,33.13
2023-04-09T03:03:13.528Z,35.13
2023-04-09T03:05:41.992Z,37.30
2023-04-09T03:08:11.597Z,35.87
2023-04-09T03:10:39.314Z,36.00
2023-04-09T03:13:07.070Z,40.13
2023-04-09T03:15:34.778Z,34.87
2023-04-09T03:18:02.575Z,35.77
2023-04-09T03:20:30.495Z,39.20
2023-04-09T03:22:58.959Z,39.60
2023-04-09T03:25:36.652Z,43.27
2023-04-09T03:28:12.651Z,39.17
2023-04-09T03:30:44.535Z,38.87
2023-04-09T03:33:12.771Z,37.10
2023-04-09T03:35:51.704Z,38.67
2023-04-09T03:38:27.244Z,40.27
2023-04-09T03:40:57.392Z,41.13
2023-04-09T03:43:25.066Z,47.97
2023-04-09T03:45:54.909Z,43.10
2023-04-09T03:48:26.168Z,42.87
2023-04-09T03:50:54.592Z,41.23
2023-04-09T03:53:33.232Z,40.53
2023-04-09T03:56:07.777Z,40.43
2023-04-09T03:58:37.297Z,40.37
2023-04-09T04:01:05.392Z,41.17
2023-04-09T04:03:38.497Z,38.90
2023-04-09T04:06:21.644Z,39.83
2023-04-09T04:09:04.478Z,41.07
2023-04-09T04:11:42.441Z,41.80
2023-04-09T04:14:10.275Z,41.80
2023-04-09T04:16:39.183Z,39.63
2023-04-09T04:19:07.363Z,40.73
2023-04-09T04:21:41.757Z,43.23
2023-04-09T04:24:09.601Z,41.80
2023-04-09T04:26:37.324Z,38.83
2023-04-09T04:29:06.638Z,43.40
2023-04-09T04:31:46.815Z,40.90
2023-04-09T04:34:17.610Z,42.70
2023-04-09T04:36:49.986Z,42.13
2023-04-09T04:39:18.939Z,40.80
2023-04-09T04:41:55.677Z,38.80
2023-04-09T04:44:28.103Z,45.00
2023-04-09T04:47:05.471Z,41.33
2023-04-09T04:49:33.160Z,46.67
2023-04-09T04:52:04.098Z,42.27
2023-04-09T04:54:33.079Z,44.10
2023-04-09T04:57:01.194Z,42.57
2023-04-09T04:59:49.948Z,45.63
2023-04-09T05:02:19.382Z,42.40
2023-04-09T05:05:13.220Z,40.63
2023-04-09T05:07:48.134Z,44.07
2023-04-09T05:10:16.408Z,40.50
2023-04-09T05:12:45.018Z,44.30
2023-04-09T05:15:19.468Z,43.70
2023-04-09T05:17:47.393Z,43.37
2023-04-09T05:20:16.728Z,47.10
2023-04-09T05:22:52.465Z,39.10
2023-04-09T05:25:26.303Z,43.37
2023-04-09T05:27:54.125Z,40.77
2023-04-09T05:30:23.668Z,45.57
2023-04-09T05:32:52.113Z,42.23
2023-04-09T05:35:20.341Z,42.20
2023-04-09T05:37:49.087Z,42.23
2023-04-09T05:40:16.898Z,45.20
2023-04-09T05:42:44.688Z,37.97
2023-04-09T05:45:19.020Z,41.93
2023-04-09T05:47:53.275Z,41.70
2023-04-09T05:50:23.439Z,37.50
2023-04-09T05:52:54.300Z,44.80
2023-04-09T05:55:23.767Z,41.67
2023-04-09T05:57:57.188Z,39.27
2023-04-09T06:00:25.094Z,41.80
2023-04-09T06:02:54.589Z,44.23
2023-04-09T06:05:22.320Z,42.90
2023-04-09T06:07:50.066Z,39.23
2023-04-09T06:10:17.925Z,43.43
2023-04-09T06:12:47.960Z,41.00
2023-04-09T06:15:16.086Z,43.60
2023-04-09T06:17:44.172Z,41.53
2023-04-09T06:20:13.465Z,43.50
2023-04-09T06:22:41.128Z,45.90
2023-04-09T06:25:09.453Z,37.27
2023-04-09T06:27:37.248Z,39.03
2023-04-09T06:30:06.046Z,41.70
2023-04-09T06:32:43.343Z,40.43
2023-04-09T06:35:20.672Z,40.17
2023-04-09T06:37:48.313Z,39.47
2023-04-09T06:40:16.430Z,39.33
2023-04-09T06:42:44.158Z,39.47
2023-04-09T06:45:19.274Z,36.30
2023-04-09T06:47:46.980Z,36.43
2023-04-09T06:50:14.740Z,39.87
2023-04-09T06:52:47.259Z,37.10
2023-04-09T06:55:18.455Z,33.77
2023-04-09T06:57:46.313Z,34.70
2023-04-09T07:00:15.054Z,33.03
2023-04-09T07:02:43.221Z,39.23
2023-04-09T07:05:11.807Z,33.50
2023-04-09T07:07:39.537Z,37.53
2023-04-09T07:10:09.957Z,35.47
2023-04-09T07:12:37.639Z,30.90
2023-04-09T07:15:07.312Z,31.23
2023-04-09T07:17:36.053Z,29.87
2023-04-09T07:20:04.075Z,30.57
2023-04-09T07:22:31.949Z,32.37
2023-04-09T07:25:00.609Z,31.20
2023-04-09T07:27:30.259Z,28.60
2023-04-09T07:29:59.238Z,26.23
2023-04-09T07:32:28.627Z,24.93
2023-04-09T07:34:57.268Z,24.23
2023-04-09T07:37:25.275Z,20.77
2023-04-09T07:39:53.429Z,21.63
2023-04-09T07:42:21.773Z,20.23
2023-04-09T07:44:51.404Z,19.17
2023-04-09T07:47:19.144Z,20.53
2023-04-09T07:49:47.313Z,19.53
2023-04-09T07:52:15.062Z,17.90
2023-04-09T07:54:43.212Z,18.77
2023-04-09T07:57:11.601Z,18.17
2023-04-09T07:59:39.538Z,14.53
2023-04-09T08:02:08.979Z,17.07
2023-04-09T08:04:36.927Z,16.40
2023-04-09T08:07:05.232Z,14.87
2023-04-09T08:09:32.966Z,18.03
2023-04-09T08:12:01.054Z,16.20
2023-04-09T08:14:28.738Z,15.00
2023-04-09T08:16:56.518Z,13.17
2023-04-09T08:19:25.862Z,12.73
2023-04-09T08:21:53.532Z,11.90
2023-04-09T08:24:21.495Z,14.37
2023-04-09T08:26:49.217Z,12.17
2023-04-09T08:29:17.033Z,11.67
2023-04-09T08:31:45.074Z,13.03
2023-04-09T08:34:13.089Z,12.60
2023-04-09T08:36:42.304Z,15.00
2023-04-09T08:39:10.047Z,10.07
2023-04-09T08:41:44.141Z,10.80
2023-04-09T08:44:11.900Z,12.47
2023-04-09T08:46:39.657Z,10.07
2023-04-09T08:49:09.894Z,8.40
2023-04-09T08:51:37.780Z,12.60
2023-04-09T08:54:07.658Z,9.53
2023-04-09T08:56:35.666Z,8.67
2023-04-09T08:59:03.503Z,7.73
2023-04-09T09:01:33.216Z,8.90
2023-04-09T09:04:04.164Z,7.97
2023-04-09T09:06:34.137Z,9.97
2023-04-09T09:09:04.959Z,8.77
2023-04-09T09:11:35.799Z,10.97
2023-04-09T09:14:05.582Z,9.03
2023-04-09T09:16:35.004Z,8.93
2023-04-09T09:19:03.524Z,8.60
2023-04-09T09:21:31.795Z,9.10
2023-04-09T09:23:59.647Z,8.57
2023-04-09T09:26:30.074Z,8.53
2023-04-09T09:29:01.492Z,9.23
2023-04-09T09:31:29.855Z,8.13
2023-04-09T09:33:57.911Z,7.60
2023-04-09T09:36:33.345Z,8.93
2023-04-09T09:39:03.908Z,9.67
2023-04-09T09:41:32.351Z,8.87
2023-04-09T09:44:02.010Z,6.10
2023-04-09T09:46:33.640Z,8.77
2023-04-09T09:49:01.600Z,6.63
2023-04-09T09:51:31.347Z,6.77
2023-04-09T09:53:59.687Z,6.97
2023-04-09T09:56:35.848Z,7.47
2023-04-09T09:59:11.792Z,7.67
2023-04-09T10:01:41.165Z,7.37
2023-04-09T10:04:13.605Z,8.97
2023-04-09T10:06:44.575Z,8.60
2023-04-09T10:09:13.886Z,8.60
2023-04-09T10:11:45.461Z,9.17
2023-04-09T10:14:15.306Z,9.03
2023-04-09T10:16:43.507Z,8.43
2023-04-09T10:19:14.045Z,8.77
2023-04-09T10:21:47.463Z,8.00
2023-04-09T10:24:17.028Z,7.20
2023-04-09T10:26:46.146Z,8.47
2023-04-09T10:29:16.612Z,7.17
2023-04-09T10:31:49.961Z,7.47
2023-04-09T10:34:19.016Z,8.77
2023-04-09T10:36:51.442Z,6.83
2023-04-09T10:39:19.368Z,6.93
2023-04-09T10:41:49.837Z,9.57
2023-04-09T10:44:23.022Z,10.00
2023-04-09T10:46:51.311Z,8.80
2023-04-09T10:49:20.879Z,8.27
2023-04-09T10:52:02.190Z,7.80
2023-04-09T10:54:45.682Z,9.43
2023-04-09T10:57:19.186Z,6.60
2023-04-09T10:59:52.811Z,7.47
2023-04-09T11:03:01.866Z,8.27
2023-04-09T11:05:34.560Z,7.37
2023-04-09T11:08:06.870Z,8.97
2023-04-09T11:10:35.206Z,7.80
2023-04-09T11:13:03.535Z,8.57
2023-04-09T11:15:33.775Z,7.27
2023-04-09T11:18:02.515Z,7.90
2023-04-09T11:20:31.237Z,10.53
2023-04-09T11:23:01.444Z,6.30
2023-04-09T11:25:31.866Z,7.37
2023-04-09T11:27:59.811Z,9.30
2023-04-09T11:30:28.005Z,6.90
2023-04-09T11:32:57.242Z,6.93
2023-04-09T11:35:25.568Z,7.47
2023-04-09T11:37:54.046Z,8.03
2023-04-09T11:40:23.699Z,7.93
2023-04-09T11:42:52.812Z,7.13
2023-04-09T11:45:22.239Z,7.80
2023-04-09T11:47:50.478Z,7.43
2023-04-09T11:50:20.978Z,7.97
2023-04-09T11:52:49.743Z,8.73
2023-04-09T11:55:24.963Z,8.43
2023-04-09T11:57:55.003Z,8.97
2023-04-09T12:00:24.653Z,7.40
2023-04-09T12:03:00.487Z,6.60
2023-04-09T12:05:31.847Z,7.93
2023-04-09T12:08:01.175Z,9.90
2023-04-09T12:10:30.002Z,7.23
2023-04-09T12:13:03.714Z,9.07
2023-04-09T12:15:36.034Z,8.20
2023-04-09T12:18:04.457Z,8.43
2023-04-09T12:20:36.861Z,7.77
2023-04-09T12:23:06.278Z,6.93
2023-04-09T12:25:36.576Z,7.00
2023-04-09T12:28:05.676Z,7.20
2023-04-09T12:30:34.280Z,7.83
2023-04-09T12:33:02.221Z,9.20
2023-04-09T12:35:30.203Z,9.87
2023-04-09T12:38:00.688Z,7.10
2023-04-09T12:40:28.947Z,9.37
2023-04-09T12:42:56.780Z,6.57
2023-04-09T12:45:24.556Z,8.83
2023-04-09T12:47:52.753Z,8.40
2023-04-09T12:50:20.754Z,9.07
2023-04-09T12:52:48.842Z,7.60
2023-04-09T12:55:18.119Z,9.63
2023-04-09T12:57:47.539Z,9.10
2023-04-09T13:00:16.290Z,8.30
2023-04-09T13:02:44.379Z,7.80
2023-04-09T13:05:13.179Z,10.53
2023-04-09T13:07:43.041Z,10.67
2023-04-09T13:10:11.651Z,8.73
2023-04-09T13:12:41.312Z,6.47
2023-04-09T13:15:09.310Z,8.60
2023-04-09T13:17:37.140Z,7.93
2023-04-09T13:20:05.542Z,9.00
2023-04-09T13:22:33.617Z,8.47
2023-04-09T13:25:01.387Z,12.23
2023-04-09T13:27:29.151Z,7.30
2023-04-09T13:29:58.340Z,7.97
2023-04-09T13:32:26.159Z,8.00
2023-04-09T13:34:55.307Z,8.00
2023-04-09T13:37:23.072Z,8.20
2023-04-09T13:39:51.185Z,8.37
2023-04-09T13:42:19.085Z,10.20
2023-04-09T13:44:46.817Z,7.93
2023-04-09T13:47:17.305Z,9.77
2023-04-09T13:49:45.373Z,8.73
2023-04-09T13:52:13.140Z,7.70
2023-04-09T13:54:41.138Z,9.37
2023-04-09T13:57:08.903Z,7.47
2023-04-09T13:59:37.966Z,8.90
2023-04-09T14:02:05.890Z,7.97
2023-04-09T14:04:35.196Z,8.20
2023-04-09T14:07:03.515Z,6.53
2023-04-09T14:09:31.697Z,7.40
2023-04-09T14:11:59.530Z,9.53
2023-04-09T14:14:27.223Z,7.20
2023-04-09T14:16:55.401Z,7.77
2023-04-09T14:19:24.347Z,8.40
2023-04-09T14:21:54.327Z,7.47
2023-04-09T14:24:23.123Z,8.90
2023-04-09T14:26:53.337Z,7.23
2023-04-09T14:29:22.054Z,6.83
2023-04-09T14:31:50.624Z,7.30
2023-04-09T14:34:18.577Z,6.27
2023-04-09T14:36:46.310Z,5.70
2023-04-09T14:39:15.574Z,7.17
2023-04-09T14:41:43.371Z,6.40
2023-04-09T14:44:11.160Z,6.77
2023-04-09T14:46:39.126Z,6.80
2023-04-09T14:49:07.116Z,5.50
2023-04-09T14:51:35.578Z,5.83
2023-04-09T14:54:03.351Z,6.90
2023-04-09T14:56:32.721Z,5.90
2023-04-09T14:59:00.645Z,5.73
2023-04-09T15:01:28.737Z,6.40
2023-04-09T15:03:57.071Z,4.97
2023-04-09T15:06:24.972Z,5.53
2023-04-09T15:08:53.051Z,5.30
2023-04-09T15:11:22.818Z,6.63
2023-04-09T15:13:52.423Z,5.30
2023-04-09T15:16:24.318Z,5.80
2023-04-09T15:18:52.961Z,5.80
2023-04-09T15:21:20.849Z,5.40
2023-04-09T15:23:48.590Z,5.80
2023-04-09T15:26:16.942Z,5.60
2023-04-09T15:28:46.023Z,5.10
2023-04-09T15:31:15.599Z,4.93
2023-04-09T15:33:44.670Z,6.43
2023-04-09T15:36:12.622Z,5.97
2023-04-09T15:38:40.406Z,5.83
2023-04-09T15:41:08.095Z,6.53
2023-04-09T15:43:35.938Z,5.33
2023-04-09T15:46:09.228Z,5.97
2023-04-09T15:48:38.666Z,6.40
2023-04-09T15:51:07.243Z,5.27
2023-04-09T15:53:34.982Z,5.80
2023-04-09T15:56:03.377Z,5.23
2023-04-09T15:58:31.227Z,6.37
2023-04-09T16:00:59.394Z,6.73
2023-04-09T16:03:27.720Z,7.83
2023-04-09T16:05:56.945Z,6.60
2023-04-09T16:08:26.550Z,5.47
2023-04-09T16:10:54.542Z,6.47
2023-04-09T16:13:23.003Z,5.00
2023-04-09T16:15:51.128Z,5.20
2023-04-09T16:18:20.000Z,6.10
2023-04-09T16:20:47.908Z,6.43
2023-04-09T16:23:17.276Z,5.33
2023-04-09T16:25:45.253Z,5.40
2023-04-09T16:28:14.149Z,6.37
2023-04-09T16:30:42.164Z,6.43
2023-04-09T16:33:10.386Z,5.93
2023-04-09T16:35:39.767Z,6.07
2023-04-09T16:38:08.355Z,7.10
2023-04-09T16:40:38.035Z,5.23
2023-04-09T16:43:06.610Z,6.07
2023-04-09T16:45:34.711Z,5.20
2023-04-09T16:48:02.786Z,5.93
2023-04-09T16:50:30.664Z,5.70
2023-04-09T16:53:00.686Z,5.93
2023-04-09T16:55:28.493Z,8.17
2023-04-09T16:57:57.708Z,6.40
2023-04-09T17:00:25.618Z,8.17
2023-04-09T17:02:55.829Z,8.70
2023-04-09T17:05:23.860Z,6.07
2023-04-09T17:07:52.427Z,5.87
2023-04-09T17:10:20.651Z,6.57
2023-04-09T17:12:48.618Z,6.40
2023-04-09T17:15:18.257Z,7.83
2023-04-09T17:17:47.801Z,5.70
2023-04-09T17:20:15.763Z,7.77
2023-04-09T17:22:43.978Z,5.73
2023-04-09T17:25:12.321Z,7.57
2023-04-09T17:27:40.148Z,8.13
2023-04-09T17:30:09.029Z,6.00
2023-04-09T17:32:39.302Z,5.80
2023-04-09T17:35:08.966Z,6.63
2023-04-09T17:37:37.628Z,5.93
2023-04-09T17:40:06.615Z,5.87
2023-04-09T17:42:34.374Z,5.57
2023-04-09T17:45:02.272Z,7.47
2023-04-09T17:47:30.079Z,5.77
2023-04-09T17:49:59.308Z,7.27
2023-04-09T17:52:27.026Z,7.13
2023-04-09T17:54:54.944Z,5.27
2023-04-09T17:57:22.873Z,5.63
2023-04-09T17:59:50.685Z,8.33
2023-04-09T18:02:18.678Z,5.57
2023-04-09T18:04:47.233Z,6.37
2023-04-09T18:07:17.338Z,5.83
2023-04-09T18:09:45.172Z,6.57
2023-04-09T18:12:13.024Z,5.63
2023-04-09T18:14:40.875Z,6.77
2023-04-09T18:17:08.697Z,5.63
2023-04-09T18:19:36.934Z,5.77
2023-04-09T18:22:04.863Z,5.87
2023-04-09T18:24:34.533Z,5.90
2023-04-09T18:27:03.528Z,6.73
2023-04-09T18:29:31.958Z,6.03
2023-04-09T18:32:00.165Z,6.00
2023-04-09T18:34:28.315Z,6.37
2023-04-09T18:36:56.145Z,5.23
2023-04-09T18:39:24.443Z,5.47
2023-04-09T18:41:53.928Z,6.10
2023-04-09T18:44:21.833Z,5.97
2023-04-09T18:46:49.760Z,6.37
2023-04-09T18:49:17.939Z,7.10
2023-04-09T18:51:45.812Z,9.63
2023-04-09T18:54:13.796Z,9.07
2023-04-09T18:56:41.556Z,7.20
2023-04-09T18:59:11.555Z,8.50
2023-04-09T19:01:39.348Z,6.73
2023-04-09T19:04:07.245Z,10.00
2023-04-09T19:06:36.420Z,7.87
2023-04-09T19:09:04.665Z,7.13
2023-04-09T19:11:32.822Z,6.17
2023-04-09T19:14:00.633Z,8.20
2023-04-09T19:16:29.870Z,7.10
2023-04-09T19:18:58.606Z,6.47
2023-04-09T19:21:26.512Z,5.90
2023-04-09T19:23:54.225Z,7.37
2023-04-09T19:26:22.293Z,5.73
2023-04-09T19:28:50.055Z,6.27
2023-04-09T19:31:17.897Z,7.97
2023-04-09T19:33:47.289Z,6.43
2023-04-09T19:36:15.025Z,5.40
2023-04-09T19:38:42.934Z,8.13
2023-04-09T19:41:10.708Z,6.37
2023-04-09T19:43:39.490Z,11.33
2023-04-09T19:46:08.428Z,7.80
2023-04-09T19:48:36.652Z,7.67
2023-04-09T19:51:07.051Z,8.67
2023-04-09T19:53:36.340Z,7.07
2023-04-09T19:56:04.213Z,10.30
2023-04-09T19:58:32.744Z,8.33
2023-04-09T20:01:01.668Z,6.50
2023-04-09T20:03:29.919Z,7.50
2023-04-09T20:05:57.868Z,7.67
2023-04-09T20:08:27.449Z,8.47
2023-04-09T20:10:55.206Z,6.53
2023-04-09T20:13:23.410Z,7.67
2023-04-09T20:15:51.411Z,7.03
2023-04-09T20:18:19.295Z,9.67
2023-04-09T20:20:47.064Z,7.13
2023-04-09T20:23:14.986Z,7.87
2023-04-09T20:25:44.176Z,8.20
2023-04-09T20:28:12.042Z,10.80
2023-04-09T20:30:39.861Z,7.23
2023-04-09T20:33:07.838Z,7.73
2023-04-09T20:35:36.536Z,9.20
2023-04-09T20:38:04.696Z,7.10
2023-04-09T20:40:32.856Z,6.53
2023-04-09T20:43:02.196Z,8.27
2023-04-09T20:45:29.999Z,7.97
2023-04-09T20:47:57.822Z,8.33
2023-04-09T20:50:25.961Z,7.43
2023-04-09T20:52:54.062Z,7.97
2023-04-09T20:55:22.061Z,7.83
2023-04-09T20:57:50.205Z,8.07
2023-04-09T21:00:19.835Z,7.77
2023-04-09T21:02:47.723Z,7.47
2023-04-09T21:05:22.434Z,7.47
2023-04-09T21:07:52.005Z,7.03
2023-04-09T21:10:19.989Z,7.07
2023-04-09T21:12:47.920Z,6.93
2023-04-09T21:15:15.912Z,6.77
2023-04-09T21:17:45.511Z,6.87
2023-04-09T21:20:15.168Z,7.17
2023-04-09T21:22:43.046Z,7.47
2023-04-09T21:25:12.666Z,9.03
2023-04-09T21:27:41.615Z,8.87
2023-04-09T21:30:10.455Z,8.67
2023-04-09T21:32:38.515Z,8.87
2023-04-09T21:35:08.698Z,8.30
2023-04-09T21:37:37.528Z,10.40
2023-04-09T21:40:06.239Z,8.73
2023-04-09T21:42:34.022Z,7.93
2023-04-09T21:45:02.582Z,7.80
2023-04-09T21:47:30.661Z,8.60
2023-04-09T21:49:58.600Z,8.70
2023-04-09T21:52:28.132Z,9.27
2023-04-09T21:54:55.857Z,8.17
2023-04-09T21:57:23.639Z,8.13
2023-04-09T21:59:51.525Z,8.57
2023-04-09T22:02:19.517Z,9.13
2023-04-09T22:04:47.422Z,8.80
2023-04-09T22:07:15.345Z,7.77
2023-04-09T22:09:44.488Z,9.83
2023-04-09T22:12:12.249Z,11.57
2023-04-09T22:14:41.768Z,12.40
2023-04-09T22:17:09.871Z,9.60
2023-04-09T22:19:37.695Z,10.27
2023-04-09T22:22:05.465Z,10.47
2023-04-09T22:24:33.893Z,12.20
2023-04-09T22:27:03.228Z,10.30
2023-04-09T22:29:31.325Z,10.90
2023-04-09T22:31:59.197Z,10.97
2023-04-09T22:34:27.274Z,10.77
2023-04-09T22:36:55.065Z,11.13
2023-04-09T22:39:23.240Z,10.57
2023-04-09T22:41:50.973Z,10.03
2023-04-09T22:44:20.224Z,10.50
2023-04-09T22:46:48.045Z,10.17
2023-04-09T22:49:16.118Z,8.53
2023-04-09T22:51:44.007Z,8.93
2023-04-09T22:54:11.777Z,9.00
2023-04-09T22:56:39.658Z,8.13
2023-04-09T22:59:08.309Z,9.20
2023-04-09T23:01:39.933Z,8.03
2023-04-09T23:04:08.163Z,8.83
2023-04-09T23:06:36.090Z,8.20
2023-04-09T23:09:03.912Z,8.83
2023-04-09T23:11:31.944Z,7.67
2023-04-09T23:13:59.949Z,7.27
2023-04-09T23:16:27.837Z,7.13
2023-04-09T23:18:57.007Z,7.97
2023-04-09T23:21:24.736Z,8.10
2023-04-09T23:23:52.884Z,7.50
2023-04-09T23:26:21.191Z,7.83
2023-04-09T23:28:48.984Z,11.60
2023-04-09T23:31:17.204Z,9.67
2023-04-09T23:33:44.908Z,9.37
2023-04-09T23:36:14.183Z,8.80
2023-04-09T23:38:43.769Z,10.60
2023-04-09T23:41:11.533Z,12.73
2023-04-09T23:43:39.391Z,9.83
2023-04-09T23:46:07.253Z,11.90
2023-04-09T23:48:35.195Z,10.47
2023-04-09T23:51:02.947Z,10.93
2023-04-09T23:53:32.251Z,9.27
2023-04-09T23:56:00.124Z,8.30
2023-04-09T23:58:27.845Z,8.43
